sensor_id;sensor_type;location;lat;lon;timestamp;temperature;humidity
24085;DHT22;12268;52.110;5.548;2023-02-17T00:02:19;11.60;99.90
24085;DHT22;12268;52.110;5.548;2023-02-17T00:04:45;11.70;99.90
24085;DHT22;12268;52.110;5.548;2023-02-17T00:07:10;11.60;99.90
24085;DHT22;12268;52.110;5.548;2023-02-17T00:09:36;11.50;99.90
24085;DHT22;12268;52.110;5.548;2023-02-17T00:12:01;11.60;99.90
24085;DHT22;12268;52.110;5.548;2023-02-17T00:14:27;11.70;99.90
24085;DHT22;12268;52.110;5.548;2023-02-17T00:16:52;11.80;99.90
24085;DHT22;12268;52.110;5.548;2023-02-17T00:19:18;11.80;99.90
24085;DHT22;12268;52.110;5.548;2023-02-17T00:21:54;11.80;99.90
24085;DHT22;12268;52.110;5.548;2023-02-17T00:24:21;11.60;99.90
24085;DHT22;12268;52.110;5.548;2023-02-17T00:26:46;11.50;99.90
24085;DHT22;12268;52.110;5.548;2023-02-17T00:29:12;11.50;99.90
24085;DHT22;12268;52.110;5.548;2023-02-17T00:31:37;11.50;99.90
24085;DHT22;12268;52.110;5.548;2023-02-17T00:34:03;11.60;99.90
24085;DHT22;12268;52.110;5.548;2023-02-17T00:36:28;11.70;99.90
24085;DHT22;12268;52.110;5.548;2023-02-17T00:38:54;11.70;99.90
24085;DHT22;12268;52.110;5.548;2023-02-17T00:41:20;11.70;99.90
24085;DHT22;12268;52.110;5.548;2023-02-17T00:43:46;11.70;99.90
24085;DHT22;12268;52.110;5.548;2023-02-17T00:46:11;11.80;99.90
24085;DHT22;12268;52.110;5.548;2023-02-17T00:48:37;11.80;99.90
24085;DHT22;12268;52.110;5.548;2023-02-17T00:51:02;11.90;99.90
24085;DHT22;12268;52.110;5.548;2023-02-17T00:53:28;12.00;99.90
24085;DHT22;12268;52.110;5.548;2023-02-17T00:55:53;11.90;99.90
24085;DHT22;12268;52.110;5.548;2023-02-17T00:58:19;11.80;99.90
24085;DHT22;12268;52.110;5.548;2023-02-17T01:00:44;11.70;99.90
24085;DHT22;12268;52.110;5.548;2023-02-17T01:03:10;11.70;99.90
24085;DHT22;12268;52.110;5.548;2023-02-17T01:05:39;11.60;99.90
24085;DHT22;12268;52.110;5.548;2023-02-17T01:08:05;11.70;99.90
24085;DHT22;12268;52.110;5.548;2023-02-17T01:10:30;11.70;99.90
24085;DHT22;12268;52.110;5.548;2023-02-17T01:12:56;11.60;99.90
24085;DHT22;12268;52.110;5.548;2023-02-17T01:15:21;11.50;99.90
24085;DHT22;12268;52.110;5.548;2023-02-17T01:17:46;11.70;99.90
24085;DHT22;12268;52.110;5.548;2023-02-17T01:20:12;11.70;99.90
24085;DHT22;12268;52.110;5.548;2023-02-17T01:22:38;11.60;99.90
24085;DHT22;12268;52.110;5.548;2023-02-17T01:25:04;11.50;99.90
24085;DHT22;12268;52.110;5.548;2023-02-17T01:27:29;11.40;99.90
24085;DHT22;12268;52.110;5.548;2023-02-17T01:29:55;11.30;99.90
24085;DHT22;12268;52.110;5.548;2023-02-17T01:32:20;11.30;99.90
24085;DHT22;12268;52.110;5.548;2023-02-17T01:34:45;11.30;99.90
24085;DHT22;12268;52.110;5.548;2023-02-17T01:37:13;11.30;99.90
24085;DHT22;12268;52.110;5.548;2023-02-17T01:39:39;11.20;99.90
24085;DHT22;12268;52.110;5.548;2023-02-17T01:42:04;11.10;99.90
24085;DHT22;12268;52.110;5.548;2023-02-17T01:44:30;11.10;99.90
24085;DHT22;12268;52.110;5.548;2023-02-17T01:46:56;11.00;99.90
24085;DHT22;12268;52.110;5.548;2023-02-17T01:51:59;11.20;99.90
24085;DHT22;12268;52.110;5.548;2023-02-17T01:54:28;11.40;99.90
24085;DHT22;12268;52.110;5.548;2023-02-17T01:56:54;11.50;99.90
24085;DHT22;12268;52.110;5.548;2023-02-17T01:59:21;11.50;99.90
24085;DHT22;12268;52.110;5.548;2023-02-17T02:01:48;11.30;99.90
24085;DHT22;12268;52.110;5.548;2023-02-17T02:04:14;11.10;99.90
24085;DHT22;12268;52.110;5.548;2023-02-17T02:06:43;11.10;99.90
24085;DHT22;12268;52.110;5.548;2023-02-17T02:09:19;11.20;99.90
24085;DHT22;12268;52.110;5.548;2023-02-17T02:11:49;11.20;99.90
24085;DHT22;12268;52.110;5.548;2023-02-17T02:14:15;11.10;99.90
24085;DHT22;12268;52.110;5.548;2023-02-17T02:16:47;11.10;99.90
24085;DHT22;12268;52.110;5.548;2023-02-17T02:24:15;10.90;99.90
24085;DHT22;12268;52.110;5.548;2023-02-17T02:34:29;10.80;99.90
24085;DHT22;12268;52.110;5.548;2023-02-17T02:36:58;10.80;99.90
24085;DHT22;12268;52.110;5.548;2023-02-17T02:39:28;10.80;99.90
24085;DHT22;12268;52.110;5.548;2023-02-17T02:41:55;10.80;99.90
24085;DHT22;12268;52.110;5.548;2023-02-17T02:44:21;10.80;99.90
24085;DHT22;12268;52.110;5.548;2023-02-17T02:46:58;10.90;99.90
24085;DHT22;12268;52.110;5.548;2023-02-17T02:49:24;10.70;99.90
24085;DHT22;12268;52.110;5.548;2023-02-17T02:51:55;10.50;99.90
24085;DHT22;12268;52.110;5.548;2023-02-17T02:54:28;10.50;99.90
24085;DHT22;12268;52.110;5.548;2023-02-17T02:57:07;10.50;99.90
24085;DHT22;12268;52.110;5.548;2023-02-17T02:59:46;10.60;99.90
24085;DHT22;12268;52.110;5.548;2023-02-17T03:02:50;10.70;99.90
24085;DHT22;12268;52.110;5.548;2023-02-17T03:07:44;10.80;99.90
24085;DHT22;12268;52.110;5.548;2023-02-17T03:10:12;10.70;99.90
24085;DHT22;12268;52.110;5.548;2023-02-17T03:12:37;10.80;99.90
24085;DHT22;12268;52.110;5.548;2023-02-17T03:15:05;10.90;99.90
24085;DHT22;12268;52.110;5.548;2023-02-17T03:17:33;10.80;99.90
24085;DHT22;12268;52.110;5.548;2023-02-17T03:20:02;10.70;99.90
24085;DHT22;12268;52.110;5.548;2023-02-17T03:22:37;10.70;99.90
24085;DHT22;12268;52.110;5.548;2023-02-17T03:25:05;10.70;99.90
24085;DHT22;12268;52.110;5.548;2023-02-17T03:27:30;10.80;99.90
24085;DHT22;12268;52.110;5.548;2023-02-17T03:29:56;10.90;99.90
24085;DHT22;12268;52.110;5.548;2023-02-17T03:32:22;11.00;99.90
24085;DHT22;12268;52.110;5.548;2023-02-17T03:34:48;11.20;99.90
24085;DHT22;12268;52.110;5.548;2023-02-17T03:37:14;11.20;99.90
24085;DHT22;12268;52.110;5.548;2023-02-17T03:39:40;11.30;99.90
24085;DHT22;12268;52.110;5.548;2023-02-17T03:42:06;11.40;99.90
24085;DHT22;12268;52.110;5.548;2023-02-17T03:44:32;11.50;99.90
24085;DHT22;12268;52.110;5.548;2023-02-17T03:46:59;11.60;99.90
24085;DHT22;12268;52.110;5.548;2023-02-17T03:49:24;11.60;99.90
24085;DHT22;12268;52.110;5.548;2023-02-17T03:51:50;11.60;99.90
24085;DHT22;12268;52.110;5.548;2023-02-17T03:54:16;11.60;99.90
24085;DHT22;12268;52.110;5.548;2023-02-17T03:56:41;11.80;99.90
24085;DHT22;12268;52.110;5.548;2023-02-17T03:59:08;11.80;99.90
24085;DHT22;12268;52.110;5.548;2023-02-17T04:01:34;11.70;99.90
24085;DHT22;12268;52.110;5.548;2023-02-17T04:03:59;11.60;99.90
24085;DHT22;12268;52.110;5.548;2023-02-17T04:06:25;11.60;99.90
24085;DHT22;12268;52.110;5.548;2023-02-17T04:08:51;11.50;99.90
24085;DHT22;12268;52.110;5.548;2023-02-17T04:11:16;11.40;99.90
24085;DHT22;12268;52.110;5.548;2023-02-17T04:13:42;11.50;99.90
24085;DHT22;12268;52.110;5.548;2023-02-17T04:16:08;11.60;99.90
24085;DHT22;12268;52.110;5.548;2023-02-17T04:18:34;11.50;99.90
24085;DHT22;12268;52.110;5.548;2023-02-17T04:21:00;11.40;99.90
24085;DHT22;12268;52.110;5.548;2023-02-17T04:23:26;11.40;99.90
24085;DHT22;12268;52.110;5.548;2023-02-17T04:25:52;11.50;99.90
24085;DHT22;12268;52.110;5.548;2023-02-17T04:28:17;11.50;99.90
24085;DHT22;12268;52.110;5.548;2023-02-17T04:30:44;11.40;99.90
24085;DHT22;12268;52.110;5.548;2023-02-17T04:33:09;11.30;99.90
24085;DHT22;12268;52.110;5.548;2023-02-17T04:35:35;11.20;99.90
24085;DHT22;12268;52.110;5.548;2023-02-17T04:38:02;11.30;99.90
24085;DHT22;12268;52.110;5.548;2023-02-17T04:40:29;11.20;99.90
24085;DHT22;12268;52.110;5.548;2023-02-17T04:42:55;11.30;99.90
24085;DHT22;12268;52.110;5.548;2023-02-17T04:45:21;11.30;99.90
24085;DHT22;12268;52.110;5.548;2023-02-17T04:47:46;11.30;99.90
24085;DHT22;12268;52.110;5.548;2023-02-17T04:50:13;11.30;99.90
24085;DHT22;12268;52.110;5.548;2023-02-17T04:52:38;11.30;99.90
24085;DHT22;12268;52.110;5.548;2023-02-17T04:55:04;11.30;99.90
24085;DHT22;12268;52.110;5.548;2023-02-17T04:57:30;11.20;99.90
24085;DHT22;12268;52.110;5.548;2023-02-17T04:59:55;11.10;99.90
24085;DHT22;12268;52.110;5.548;2023-02-17T05:02:21;11.10;99.90
24085;DHT22;12268;52.110;5.548;2023-02-17T05:04:47;11.20;99.90
24085;DHT22;12268;52.110;5.548;2023-02-17T05:07:12;11.20;99.90
24085;DHT22;12268;52.110;5.548;2023-02-17T05:09:38;11.20;99.90
24085;DHT22;12268;52.110;5.548;2023-02-17T05:12:05;11.20;99.90
24085;DHT22;12268;52.110;5.548;2023-02-17T05:14:31;11.30;99.90
24085;DHT22;12268;52.110;5.548;2023-02-17T05:16:57;11.30;99.90
24085;DHT22;12268;52.110;5.548;2023-02-17T05:19:23;11.30;99.90
24085;DHT22;12268;52.110;5.548;2023-02-17T05:21:49;11.30;99.90
24085;DHT22;12268;52.110;5.548;2023-02-17T05:24:15;11.10;99.90
24085;DHT22;12268;52.110;5.548;2023-02-17T05:26:41;11.00;99.90
24085;DHT22;12268;52.110;5.548;2023-02-17T05:29:08;11.10;99.90
24085;DHT22;12268;52.110;5.548;2023-02-17T05:31:33;11.30;99.90
24085;DHT22;12268;52.110;5.548;2023-02-17T05:33:59;11.20;99.90
24085;DHT22;12268;52.110;5.548;2023-02-17T05:36:24;11.10;99.90
24085;DHT22;12268;52.110;5.548;2023-02-17T05:38:50;11.10;99.90
24085;DHT22;12268;52.110;5.548;2023-02-17T05:41:16;11.00;99.90
24085;DHT22;12268;52.110;5.548;2023-02-17T05:43:41;10.90;99.90
24085;DHT22;12268;52.110;5.548;2023-02-17T05:46:07;10.90;99.90
24085;DHT22;12268;52.110;5.548;2023-02-17T05:48:33;10.80;99.90
24085;DHT22;12268;52.110;5.548;2023-02-17T05:50:58;10.90;99.90
24085;DHT22;12268;52.110;5.548;2023-02-17T05:53:24;10.90;99.90
24085;DHT22;12268;52.110;5.548;2023-02-17T05:55:50;10.90;99.90
24085;DHT22;12268;52.110;5.548;2023-02-17T05:58:15;11.00;99.90
24085;DHT22;12268;52.110;5.548;2023-02-17T06:00:41;11.00;99.90
24085;DHT22;12268;52.110;5.548;2023-02-17T06:03:06;10.90;99.90
24085;DHT22;12268;52.110;5.548;2023-02-17T06:05:32;10.90;99.90
24085;DHT22;12268;52.110;5.548;2023-02-17T06:07:57;10.80;99.90
24085;DHT22;12268;52.110;5.548;2023-02-17T06:10:23;10.90;99.90
24085;DHT22;12268;52.110;5.548;2023-02-17T06:12:48;10.90;99.90
24085;DHT22;12268;52.110;5.548;2023-02-17T06:15:14;10.90;99.90
24085;DHT22;12268;52.110;5.548;2023-02-17T06:17:39;10.80;99.90
24085;DHT22;12268;52.110;5.548;2023-02-17T06:20:05;10.80;99.90
24085;DHT22;12268;52.110;5.548;2023-02-17T06:22:31;10.70;99.90
24085;DHT22;12268;52.110;5.548;2023-02-17T06:24:59;10.80;99.90
24085;DHT22;12268;52.110;5.548;2023-02-17T06:27:24;10.90;99.90
24085;DHT22;12268;52.110;5.548;2023-02-17T06:29:50;10.90;99.90
24085;DHT22;12268;52.110;5.548;2023-02-17T06:32:15;11.00;99.90
24085;DHT22;12268;52.110;5.548;2023-02-17T06:34:41;10.90;99.90
24085;DHT22;12268;52.110;5.548;2023-02-17T06:37:06;11.00;99.90
24085;DHT22;12268;52.110;5.548;2023-02-17T06:39:32;11.00;99.90
24085;DHT22;12268;52.110;5.548;2023-02-17T06:41:58;11.10;99.90
24085;DHT22;12268;52.110;5.548;2023-02-17T06:44:23;11.20;99.90
24085;DHT22;12268;52.110;5.548;2023-02-17T06:46:49;11.20;99.90
24085;DHT22;12268;52.110;5.548;2023-02-17T06:49:15;11.10;99.90
24085;DHT22;12268;52.110;5.548;2023-02-17T06:51:40;11.10;99.90
24085;DHT22;12268;52.110;5.548;2023-02-17T06:54:06;11.10;99.90
24085;DHT22;12268;52.110;5.548;2023-02-17T06:56:31;11.10;99.90
24085;DHT22;12268;52.110;5.548;2023-02-17T06:58:57;11.10;99.90
24085;DHT22;12268;52.110;5.548;2023-02-17T07:01:23;11.00;99.90
24085;DHT22;12268;52.110;5.548;2023-02-17T07:03:53;11.10;99.90
24085;DHT22;12268;52.110;5.548;2023-02-17T07:06:19;11.10;99.90
24085;DHT22;12268;52.110;5.548;2023-02-17T07:08:45;11.10;99.90
24085;DHT22;12268;52.110;5.548;2023-02-17T07:11:11;11.20;99.90
24085;DHT22;12268;52.110;5.548;2023-02-17T07:13:37;11.20;99.90
24085;DHT22;12268;52.110;5.548;2023-02-17T07:16:05;11.20;99.90
24085;DHT22;12268;52.110;5.548;2023-02-17T07:18:30;11.10;99.90
24085;DHT22;12268;52.110;5.548;2023-02-17T07:20:56;11.00;99.90
24085;DHT22;12268;52.110;5.548;2023-02-17T07:23:21;11.10;99.90
24085;DHT22;12268;52.110;5.548;2023-02-17T07:25:47;11.00;99.90
24085;DHT22;12268;52.110;5.548;2023-02-17T07:28:13;11.10;99.90
24085;DHT22;12268;52.110;5.548;2023-02-17T07:30:38;11.20;99.90
24085;DHT22;12268;52.110;5.548;2023-02-17T07:33:05;11.20;99.90
24085;DHT22;12268;52.110;5.548;2023-02-17T07:35:30;11.10;99.90
24085;DHT22;12268;52.110;5.548;2023-02-17T07:37:56;11.30;99.90
24085;DHT22;12268;52.110;5.548;2023-02-17T07:40:22;11.30;99.90
24085;DHT22;12268;52.110;5.548;2023-02-17T07:42:47;11.30;99.90
24085;DHT22;12268;52.110;5.548;2023-02-17T07:45:13;11.30;99.90
24085;DHT22;12268;52.110;5.548;2023-02-17T07:47:38;11.30;99.90
24085;DHT22;12268;52.110;5.548;2023-02-17T07:50:04;11.30;99.90
24085;DHT22;12268;52.110;5.548;2023-02-17T07:52:29;11.30;99.90
24085;DHT22;12268;52.110;5.548;2023-02-17T07:54:55;11.40;99.90
24085;DHT22;12268;52.110;5.548;2023-02-17T07:57:20;11.40;99.90
24085;DHT22;12268;52.110;5.548;2023-02-17T07:59:46;11.50;99.90
24085;DHT22;12268;52.110;5.548;2023-02-17T08:02:12;11.60;99.90
24085;DHT22;12268;52.110;5.548;2023-02-17T08:04:37;11.60;99.90
24085;DHT22;12268;52.110;5.548;2023-02-17T08:07:03;11.60;99.90
24085;DHT22;12268;52.110;5.548;2023-02-17T08:09:28;11.60;99.90
24085;DHT22;12268;52.110;5.548;2023-02-17T08:12:14;11.50;99.90
24085;DHT22;12268;52.110;5.548;2023-02-17T08:14:59;11.60;99.90
24085;DHT22;12268;52.110;5.548;2023-02-17T08:17:26;11.50;99.90
24085;DHT22;12268;52.110;5.548;2023-02-17T08:19:51;11.50;99.90
24085;DHT22;12268;52.110;5.548;2023-02-17T08:22:17;11.70;99.90
24085;DHT22;12268;52.110;5.548;2023-02-17T08:24:42;11.70;99.90
24085;DHT22;12268;52.110;5.548;2023-02-17T08:27:08;11.80;99.90
24085;DHT22;12268;52.110;5.548;2023-02-17T08:29:33;11.80;99.90
24085;DHT22;12268;52.110;5.548;2023-02-17T08:31:59;11.80;99.90
24085;DHT22;12268;52.110;5.548;2023-02-17T08:34:24;11.80;99.90
24085;DHT22;12268;52.110;5.548;2023-02-17T08:36:50;11.80;99.90
24085;DHT22;12268;52.110;5.548;2023-02-17T08:39:16;11.80;99.90
24085;DHT22;12268;52.110;5.548;2023-02-17T08:41:41;11.80;99.90
24085;DHT22;12268;52.110;5.548;2023-02-17T08:44:11;11.90;99.90
24085;DHT22;12268;52.110;5.548;2023-02-17T08:46:37;11.90;99.90
24085;DHT22;12268;52.110;5.548;2023-02-17T08:49:04;11.90;99.90
24085;DHT22;12268;52.110;5.548;2023-02-17T08:51:29;11.90;99.90
24085;DHT22;12268;52.110;5.548;2023-02-17T08:53:56;11.90;99.90
24085;DHT22;12268;52.110;5.548;2023-02-17T08:56:22;11.90;99.90
24085;DHT22;12268;52.110;5.548;2023-02-17T08:58:47;11.90;99.90
24085;DHT22;12268;52.110;5.548;2023-02-17T09:01:13;12.00;99.90
24085;DHT22;12268;52.110;5.548;2023-02-17T09:03:39;12.00;99.90
24085;DHT22;12268;52.110;5.548;2023-02-17T09:06:05;12.10;99.90
24085;DHT22;12268;52.110;5.548;2023-02-17T09:08:31;12.10;99.90
24085;DHT22;12268;52.110;5.548;2023-02-17T09:10:56;12.10;99.90
24085;DHT22;12268;52.110;5.548;2023-02-17T09:13:22;12.10;99.90
24085;DHT22;12268;52.110;5.548;2023-02-17T09:15:47;12.10;99.90
24085;DHT22;12268;52.110;5.548;2023-02-17T09:18:14;12.20;99.90
24085;DHT22;12268;52.110;5.548;2023-02-17T09:20:39;12.30;99.90
24085;DHT22;12268;52.110;5.548;2023-02-17T09:23:05;12.30;99.90
24085;DHT22;12268;52.110;5.548;2023-02-17T09:25:31;12.30;99.90
24085;DHT22;12268;52.110;5.548;2023-02-17T09:27:56;12.20;99.90
24085;DHT22;12268;52.110;5.548;2023-02-17T09:30:22;12.20;99.90
24085;DHT22;12268;52.110;5.548;2023-02-17T09:32:47;12.30;99.90
24085;DHT22;12268;52.110;5.548;2023-02-17T09:35:13;12.30;99.90
24085;DHT22;12268;52.110;5.548;2023-02-17T09:37:39;12.30;99.90
24085;DHT22;12268;52.110;5.548;2023-02-17T09:40:05;12.30;99.90
24085;DHT22;12268;52.110;5.548;2023-02-17T09:42:31;12.30;99.90
24085;DHT22;12268;52.110;5.548;2023-02-17T09:47:24;12.20;99.90
24085;DHT22;12268;52.110;5.548;2023-02-17T09:50:07;12.20;99.90
24085;DHT22;12268;52.110;5.548;2023-02-17T09:52:35;12.20;99.90
24085;DHT22;12268;52.110;5.548;2023-02-17T09:57:31;12.20;99.90
24085;DHT22;12268;52.110;5.548;2023-02-17T09:59:59;12.30;99.90
24085;DHT22;12268;52.110;5.548;2023-02-17T10:02:49;12.40;99.90
24085;DHT22;12268;52.110;5.548;2023-02-17T10:05:21;12.50;99.90
24085;DHT22;12268;52.110;5.548;2023-02-17T10:07:49;12.40;99.90
24085;DHT22;12268;52.110;5.548;2023-02-17T10:10:17;12.40;99.90
24085;DHT22;12268;52.110;5.548;2023-02-17T10:12:44;12.40;99.90
24085;DHT22;12268;52.110;5.548;2023-02-17T10:15:15;12.50;99.90
24085;DHT22;12268;52.110;5.548;2023-02-17T10:20:34;12.50;99.90
24085;DHT22;12268;52.110;5.548;2023-02-17T10:23:06;12.30;99.90
24085;DHT22;12268;52.110;5.548;2023-02-17T10:25:45;12.40;99.90
24085;DHT22;12268;52.110;5.548;2023-02-17T10:28:24;12.40;99.90
24085;DHT22;12268;52.110;5.548;2023-02-17T10:30:59;12.30;99.90
24085;DHT22;12268;52.110;5.548;2023-02-17T10:33:36;12.30;99.90
24085;DHT22;12268;52.110;5.548;2023-02-17T10:38:46;12.10;99.90
24085;DHT22;12268;52.110;5.548;2023-02-17T10:44:48;12.10;99.90
24085;DHT22;12268;52.110;5.548;2023-02-17T10:47:16;12.10;99.90
24085;DHT22;12268;52.110;5.548;2023-02-17T10:49:45;12.30;99.90
24085;DHT22;12268;52.110;5.548;2023-02-17T10:52:22;12.20;99.90
24085;DHT22;12268;52.110;5.548;2023-02-17T10:55:03;12.40;99.90
24085;DHT22;12268;52.110;5.548;2023-02-17T10:57:34;12.60;99.90
24085;DHT22;12268;52.110;5.548;2023-02-17T11:00:03;12.40;99.90
24085;DHT22;12268;52.110;5.548;2023-02-17T11:02:35;12.30;99.90
24085;DHT22;12268;52.110;5.548;2023-02-17T11:05:04;12.30;99.90
24085;DHT22;12268;52.110;5.548;2023-02-17T11:07:37;12.20;99.90
24085;DHT22;12268;52.110;5.548;2023-02-17T11:10:24;12.10;99.90
24085;DHT22;12268;52.110;5.548;2023-02-17T11:12:51;12.10;99.90
24085;DHT22;12268;52.110;5.548;2023-02-17T11:15:22;12.20;99.90
24085;DHT22;12268;52.110;5.548;2023-02-17T11:17:49;12.40;99.90
24085;DHT22;12268;52.110;5.548;2023-02-17T11:22:47;12.30;99.90
24085;DHT22;12268;52.110;5.548;2023-02-17T11:25:29;12.40;99.90
24085;DHT22;12268;52.110;5.548;2023-02-17T11:27:58;12.40;99.90
24085;DHT22;12268;52.110;5.548;2023-02-17T11:30:26;12.50;99.90
24085;DHT22;12268;52.110;5.548;2023-02-17T11:32:52;12.60;99.90
24085;DHT22;12268;52.110;5.548;2023-02-17T11:38:13;12.50;99.90
24085;DHT22;12268;52.110;5.548;2023-02-17T11:40:38;12.30;99.90
24085;DHT22;12268;52.110;5.548;2023-02-17T11:43:05;12.20;99.90
24085;DHT22;12268;52.110;5.548;2023-02-17T11:49:17;12.20;99.90
24085;DHT22;12268;52.110;5.548;2023-02-17T11:51:29;12.20;99.90
24085;DHT22;12268;52.110;5.548;2023-02-17T11:54:12;12.20;99.90
24085;DHT22;12268;52.110;5.548;2023-02-17T11:56:42;12.20;99.90
24085;DHT22;12268;52.110;5.548;2023-02-17T12:02:17;12.20;99.90
24085;DHT22;12268;52.110;5.548;2023-02-17T12:07:49;12.20;99.90
24085;DHT22;12268;52.110;5.548;2023-02-17T12:13:26;12.20;99.90
24085;DHT22;12268;52.110;5.548;2023-02-17T12:16:20;12.10;99.90
24085;DHT22;12268;52.110;5.548;2023-02-17T12:25:27;11.90;99.90
24085;DHT22;12268;52.110;5.548;2023-02-17T12:28:01;11.80;99.90
24085;DHT22;12268;52.110;5.548;2023-02-17T12:35:40;12.30;99.90
24085;DHT22;12268;52.110;5.548;2023-02-17T12:38:18;12.30;99.90
24085;DHT22;12268;52.110;5.548;2023-02-17T12:46:08;12.10;99.90
24085;DHT22;12268;52.110;5.548;2023-02-17T12:48:41;12.10;99.90
24085;DHT22;12268;52.110;5.548;2023-02-17T12:51:29;12.10;99.90
24085;DHT22;12268;52.110;5.548;2023-02-17T12:54:02;12.10;99.90
24085;DHT22;12268;52.110;5.548;2023-02-17T12:59:42;12.10;99.90
24085;DHT22;12268;52.110;5.548;2023-02-17T13:02:13;11.80;99.90
24085;DHT22;12268;52.110;5.548;2023-02-17T13:04:40;11.80;99.90
24085;DHT22;12268;52.110;5.548;2023-02-17T13:09:45;11.80;99.90
24085;DHT22;12268;52.110;5.548;2023-02-17T13:12:31;11.70;99.90
24085;DHT22;12268;52.110;5.548;2023-02-17T13:15:00;11.80;99.90
24085;DHT22;12268;52.110;5.548;2023-02-17T13:17:37;11.80;99.90
24085;DHT22;12268;52.110;5.548;2023-02-17T13:22:39;11.90;99.90
24085;DHT22;12268;52.110;5.548;2023-02-17T13:25:05;11.80;99.90
24085;DHT22;12268;52.110;5.548;2023-02-17T13:27:36;11.90;99.90
24085;DHT22;12268;52.110;5.548;2023-02-17T13:32:47;12.00;99.90
24085;DHT22;12268;52.110;5.548;2023-02-17T13:37:47;12.20;99.90
24085;DHT22;12268;52.110;5.548;2023-02-17T13:42:47;12.40;99.90
24085;DHT22;12268;52.110;5.548;2023-02-17T13:45:26;12.40;99.90
24085;DHT22;12268;52.110;5.548;2023-02-17T13:48:44;12.30;99.90
24085;DHT22;12268;52.110;5.548;2023-02-17T13:50:47;12.30;99.90
24085;DHT22;12268;52.110;5.548;2023-02-17T13:55:54;12.30;99.90
24085;DHT22;12268;52.110;5.548;2023-02-17T13:58:22;12.30;99.90
24085;DHT22;12268;52.110;5.548;2023-02-17T14:00:48;12.50;99.90
24085;DHT22;12268;52.110;5.548;2023-02-17T14:03:28;12.40;99.90
24085;DHT22;12268;52.110;5.548;2023-02-17T14:05:56;12.40;99.90
24085;DHT22;12268;52.110;5.548;2023-02-17T14:08:39;12.50;99.90
24085;DHT22;12268;52.110;5.548;2023-02-17T14:11:08;12.40;99.90
24085;DHT22;12268;52.110;5.548;2023-02-17T14:13:37;12.30;99.90
24085;DHT22;12268;52.110;5.548;2023-02-17T14:16:05;12.20;99.90
24085;DHT22;12268;52.110;5.548;2023-02-17T14:18:37;12.20;99.90
24085;DHT22;12268;52.110;5.548;2023-02-17T14:21:22;12.30;99.90
24085;DHT22;12268;52.110;5.548;2023-02-17T14:23:50;12.30;99.90
24085;DHT22;12268;52.110;5.548;2023-02-17T14:26:43;12.40;99.90
24085;DHT22;12268;52.110;5.548;2023-02-17T14:29:11;12.40;99.90
24085;DHT22;12268;52.110;5.548;2023-02-17T14:31:39;12.40;99.90
24085;DHT22;12268;52.110;5.548;2023-02-17T14:34:06;12.50;99.90
24085;DHT22;12268;52.110;5.548;2023-02-17T14:36:38;12.60;99.90
24085;DHT22;12268;52.110;5.548;2023-02-17T14:39:06;12.60;99.90
24085;DHT22;12268;52.110;5.548;2023-02-17T14:41:34;12.70;99.90
24085;DHT22;12268;52.110;5.548;2023-02-17T14:44:00;12.70;99.90
24085;DHT22;12268;52.110;5.548;2023-02-17T14:46:26;12.70;99.90
24085;DHT22;12268;52.110;5.548;2023-02-17T14:48:52;12.70;99.90
24085;DHT22;12268;52.110;5.548;2023-02-17T14:51:21;12.70;99.90
24085;DHT22;12268;52.110;5.548;2023-02-17T14:53:47;12.60;99.90
24085;DHT22;12268;52.110;5.548;2023-02-17T14:56:30;12.60;99.90
24085;DHT22;12268;52.110;5.548;2023-02-17T15:01:26;12.70;99.90
24085;DHT22;12268;52.110;5.548;2023-02-17T15:03:52;12.70;99.90
24085;DHT22;12268;52.110;5.548;2023-02-17T15:06:28;12.60;99.90
24085;DHT22;12268;52.110;5.548;2023-02-17T15:08:54;12.70;99.90
24085;DHT22;12268;52.110;5.548;2023-02-17T15:11:27;12.70;99.90
24085;DHT22;12268;52.110;5.548;2023-02-17T15:13:54;12.70;99.90
24085;DHT22;12268;52.110;5.548;2023-02-17T15:16:19;12.80;99.90
24085;DHT22;12268;52.110;5.548;2023-02-17T15:18:45;12.70;99.90
24085;DHT22;12268;52.110;5.548;2023-02-17T15:21:29;12.70;99.90
24085;DHT22;12268;52.110;5.548;2023-02-17T15:23:57;12.70;99.90
24085;DHT22;12268;52.110;5.548;2023-02-17T15:26:23;12.80;99.90
24085;DHT22;12268;52.110;5.548;2023-02-17T15:28:49;12.70;99.90
24085;DHT22;12268;52.110;5.548;2023-02-17T15:31:15;12.60;99.90
24085;DHT22;12268;52.110;5.548;2023-02-17T15:33:42;12.60;99.90
24085;DHT22;12268;52.110;5.548;2023-02-17T15:36:12;12.60;99.90
24085;DHT22;12268;52.110;5.548;2023-02-17T15:38:39;12.70;99.90
24085;DHT22;12268;52.110;5.548;2023-02-17T15:41:15;12.70;99.90
24085;DHT22;12268;52.110;5.548;2023-02-17T15:43:42;12.80;99.90
24085;DHT22;12268;52.110;5.548;2023-02-17T15:46:14;12.80;99.90
24085;DHT22;12268;52.110;5.548;2023-02-17T15:48:41;12.90;99.90
24085;DHT22;12268;52.110;5.548;2023-02-17T15:51:11;12.80;99.90
24085;DHT22;12268;52.110;5.548;2023-02-17T15:53:39;12.60;99.90
24085;DHT22;12268;52.110;5.548;2023-02-17T15:56:10;12.60;99.90
24085;DHT22;12268;52.110;5.548;2023-02-17T15:58:37;12.60;99.90
24085;DHT22;12268;52.110;5.548;2023-02-17T16:01:02;12.70;99.90
24085;DHT22;12268;52.110;5.548;2023-02-17T16:03:28;12.70;99.90
24085;DHT22;12268;52.110;5.548;2023-02-17T16:05:53;12.60;99.90
24085;DHT22;12268;52.110;5.548;2023-02-17T16:08:19;12.50;99.90
24085;DHT22;12268;52.110;5.548;2023-02-17T16:10:44;12.50;99.90
24085;DHT22;12268;52.110;5.548;2023-02-17T16:13:13;12.50;99.90
24085;DHT22;12268;52.110;5.548;2023-02-17T16:15:39;12.50;99.90
24085;DHT22;12268;52.110;5.548;2023-02-17T16:18:05;12.50;99.90
24085;DHT22;12268;52.110;5.548;2023-02-17T16:20:33;12.40;99.90
24085;DHT22;12268;52.110;5.548;2023-02-17T16:22:59;12.40;99.90
24085;DHT22;12268;52.110;5.548;2023-02-17T16:25:26;12.30;99.90
24085;DHT22;12268;52.110;5.548;2023-02-17T16:27:53;12.40;99.90
24085;DHT22;12268;52.110;5.548;2023-02-17T16:30:22;12.40;99.90
24085;DHT22;12268;52.110;5.548;2023-02-17T16:32:49;12.40;99.90
24085;DHT22;12268;52.110;5.548;2023-02-17T16:35:22;12.40;99.90
24085;DHT22;12268;52.110;5.548;2023-02-17T16:38:17;12.30;99.90
24085;DHT22;12268;52.110;5.548;2023-02-17T16:40:46;12.30;99.90
24085;DHT22;12268;52.110;5.548;2023-02-17T16:43:21;12.30;99.90
24085;DHT22;12268;52.110;5.548;2023-02-17T16:45:51;12.20;99.90
24085;DHT22;12268;52.110;5.548;2023-02-17T16:48:21;12.20;99.90
24085;DHT22;12268;52.110;5.548;2023-02-17T16:50:47;12.10;99.90
24085;DHT22;12268;52.110;5.548;2023-02-17T16:53:12;12.10;99.90
24085;DHT22;12268;52.110;5.548;2023-02-17T16:55:38;12.10;99.90
24085;DHT22;12268;52.110;5.548;2023-02-17T16:58:20;12.10;99.90
24085;DHT22;12268;52.110;5.548;2023-02-17T17:00:49;12.10;99.90
24085;DHT22;12268;52.110;5.548;2023-02-17T17:03:16;12.10;99.90
24085;DHT22;12268;52.110;5.548;2023-02-17T17:05:42;12.10;99.90